createdAt,value
2019-01-06T00:00:43.335Z,5.57
2019-01-06T00:03:37.980Z,5.80
2019-01-06T00:06:37.661Z,3.30
2019-01-06T00:09:35.880Z,5.10
2019-01-06T00:12:20.317Z,5.17
2019-01-06T00:15:21.098Z,4.47
2019-01-06T00:18:18.850Z,5.13
2019-01-06T00:21:06.189Z,5.47
2019-01-06T00:24:10.532Z,4.33
2019-01-06T00:26:58.641Z,6.03
2019-01-06T00:29:45.713Z,6.47
2019-01-06T00:32:39.839Z,6.97
2019-01-06T00:35:43.348Z,6.07
2019-01-06T00:38:30.528Z,5.10
2019-01-06T00:41:17.577Z,7.40
2019-01-06T00:44:21.294Z,4.30
2019-01-06T00:47:09.401Z,5.33
2019-01-06T00:50:04.025Z,5.27
2019-01-06T00:52:52.083Z,6.87
2019-01-06T00:55:39.465Z,6.60
2019-01-06T00:58:26.595Z,5.20
2019-01-06T01:01:32.982Z,4.90
2019-01-06T01:04:19.768Z,5.13
2019-01-06T01:07:23.286Z,4.13
2019-01-06T01:10:20.421Z,4.90
2019-01-06T01:13:08.005Z,5.40
2019-01-06T01:16:08.685Z,4.27
2019-01-06T01:18:55.785Z,4.47
2019-01-06T01:21:43.939Z,5.05
2019-01-06T01:24:27.978Z,4.70
2019-01-06T01:27:34.919Z,4.60
2019-01-06T01:30:23.387Z,5.27
2019-01-06T01:33:20.257Z,5.10
2019-01-06T01:36:07.103Z,4.87
2019-01-06T01:38:54.675Z,5.67
2019-01-06T01:41:58.526Z,5.23
2019-01-06T01:45:05.092Z,4.93
2019-01-06T01:47:59.640Z,5.17
2019-01-06T01:50:46.909Z,5.93
2019-01-06T01:53:44.249Z,4.40
2019-01-06T01:56:30.919Z,5.50
2019-01-06T01:59:22.422Z,5.27
2019-01-06T02:02:26.010Z,5.27
2019-01-06T02:05:07.412Z,4.57
2019-01-06T02:07:54.668Z,4.33
2019-01-06T02:10:42.391Z,3.40
2019-01-06T02:13:36.409Z,6.30
2019-01-06T02:16:23.621Z,5.25
2019-01-06T02:19:10.883Z,3.80
2019-01-06T02:21:59.015Z,2.20
2019-01-06T02:25:02.827Z,3.07
2019-01-06T02:27:51.124Z,4.40
2019-01-06T02:30:51.884Z,3.30
2019-01-06T02:33:42.839Z,3.03
2019-01-06T02:36:34.808Z,4.40
2019-01-06T02:39:25.978Z,4.33
2019-01-06T02:42:17.876Z,3.60
2019-01-06T02:45:05.533Z,3.10
2019-01-06T02:47:52.457Z,2.97
2019-01-06T02:50:46.141Z,3.37
2019-01-06T02:53:46.526Z,2.63
2019-01-06T02:56:40.804Z,2.20
2019-01-06T02:59:28.220Z,2.40
2019-01-06T03:02:34.876Z,2.43
2019-01-06T03:05:38.196Z,3.07
2019-01-06T03:08:25.366Z,3.30
2019-01-06T03:11:25.659Z,2.67
2019-01-06T03:14:08.501Z,2.80
2019-01-06T03:17:00.922Z,2.57
2019-01-06T03:19:47.743Z,2.47
2019-01-06T03:22:54.149Z,1.90
2019-01-06T03:25:41.177Z,3.37
2019-01-06T03:28:29.683Z,2.63
2019-01-06T03:31:26.832Z,2.43
2019-01-06T03:34:18.286Z,3.20
2019-01-06T03:37:09.310Z,3.50
2019-01-06T03:39:53.344Z,2.30
2019-01-06T03:42:41.540Z,3.00
2019-01-06T03:45:36.237Z,2.37
2019-01-06T03:48:23.645Z,2.40
2019-01-06T03:51:21.457Z,2.80
2019-01-06T03:54:24.698Z,3.03
2019-01-06T03:57:11.951Z,3.30
2019-01-06T04:00:07.795Z,3.10
2019-01-06T04:02:47.793Z,3.70
2019-01-06T04:05:48.228Z,3.90
2019-01-06T04:08:35.380Z,3.90
2019-01-06T04:11:32.588Z,3.97
2019-01-06T04:14:21.461Z,5.10
2019-01-06T04:17:08.403Z,4.67
2019-01-06T04:20:08.676Z,5.03
2019-01-06T04:22:55.861Z,6.53
2019-01-06T04:25:42.972Z,5.50
2019-01-06T04:28:34.264Z,7.07
2019-01-06T04:31:29.802Z,7.53
2019-01-06T04:34:21.533Z,4.93
2019-01-06T04:37:08.970Z,7.07
2019-01-06T04:40:09.426Z,5.10
2019-01-06T04:43:03.850Z,5.50
2019-01-06T04:45:51.992Z,5.80
2019-01-06T04:48:49.132Z,5.20
2019-01-06T04:51:35.996Z,5.60
2019-01-06T04:54:36.461Z,6.73
2019-01-06T04:57:33.380Z,6.97
2019-01-06T05:00:21.847Z,5.30
2019-01-06T05:03:25.146Z,6.00
2019-01-06T05:06:16.590Z,6.53
2019-01-06T05:09:03.825Z,4.47
2019-01-06T05:11:51.937Z,6.17
2019-01-06T05:14:40.877Z,5.03
2019-01-06T05:17:28.092Z,4.60
2019-01-06T05:20:22.392Z,6.17
2019-01-06T05:23:09.641Z,4.73
2019-01-06T05:26:00.971Z,4.93
2019-01-06T05:28:53.725Z,5.80
2019-01-06T05:31:40.972Z,5.57
2019-01-06T05:34:42.890Z,4.87
2019-01-06T05:37:36.821Z,5.50
2019-01-06T05:40:25.303Z,8.13
2019-01-06T05:43:12.625Z,6.97
2019-01-06T05:45:59.800Z,7.93
2019-01-06T05:49:06.469Z,8.07
2019-01-06T05:52:00.568Z,6.17
2019-01-06T05:54:54.628Z,5.60
2019-01-06T05:57:41.803Z,5.45
2019-01-06T06:00:32.937Z,6.50
2019-01-06T06:03:30.395Z,6.13
2019-01-06T06:06:21.735Z,6.53
2019-01-06T06:09:09.337Z,5.50
2019-01-06T06:12:09.499Z,5.57
2019-01-06T06:14:56.309Z,7.47
2019-01-06T06:17:50.729Z,5.00
2019-01-06T06:20:41.821Z,7.27
2019-01-06T06:23:30.498Z,5.20
2019-01-06T06:26:18.152Z,4.00
2019-01-06T06:29:15.617Z,6.00
2019-01-06T06:32:02.931Z,5.30
2019-01-06T06:34:59.835Z,6.03
2019-01-06T06:37:57.388Z,4.90
2019-01-06T06:40:55.261Z,4.90
2019-01-06T06:43:42.681Z,5.43
2019-01-06T06:46:29.983Z,2.97
2019-01-06T06:49:17.610Z,4.93
2019-01-06T06:51:57.318Z,4.37
2019-01-06T06:54:51.505Z,4.13
2019-01-06T06:58:15.142Z,4.65
2019-01-06T07:01:06.489Z,4.20
2019-01-06T07:04:02.315Z,4.20
2019-01-06T07:07:08.614Z,3.83
2019-01-06T07:09:55.091Z,3.67
2019-01-06T07:12:41.920Z,3.23
2019-01-06T07:15:29.018Z,3.97
2019-01-06T07:18:24.516Z,3.60
2019-01-06T07:21:11.604Z,4.67
2019-01-06T07:24:03.988Z,3.60
2019-01-06T07:26:51.158Z,4.07
2019-01-06T07:29:39.223Z,3.83
2019-01-06T07:32:36.422Z,3.97
2019-01-06T07:35:23.623Z,3.90
2019-01-06T07:38:30.168Z,4.50
2019-01-06T07:41:30.687Z,4.13
2019-01-06T07:44:29.185Z,4.03
2019-01-06T07:47:17.290Z,3.37
2019-01-06T07:50:04.635Z,2.53
2019-01-06T07:52:55.591Z,3.60
2019-01-06T07:55:42.801Z,3.00
2019-01-06T07:58:40.375Z,3.80
2019-01-06T08:01:27.761Z,3.10
2019-01-06T08:04:19.393Z,2.70
2019-01-06T08:07:08.017Z,2.50
2019-01-06T08:09:55.434Z,2.77
2019-01-06T08:12:46.281Z,3.07
2019-01-06T08:15:33.014Z,3.00
2019-01-06T08:18:36.713Z,3.90
2019-01-06T08:21:31.400Z,3.67
2019-01-06T08:24:18.888Z,3.97
2019-01-06T08:27:12.760Z,3.13
2019-01-06T08:30:07.890Z,3.13
2019-01-06T08:32:55.225Z,3.00
2019-01-06T08:35:42.301Z,2.40
2019-01-06T08:38:36.677Z,3.17
2019-01-06T08:41:27.790Z,3.07
2019-01-06T08:44:14.645Z,3.30
2019-01-06T08:47:17.864Z,3.60
2019-01-06T08:50:05.022Z,3.47
2019-01-06T08:52:53.639Z,3.90
2019-01-06T08:55:44.511Z,3.80
2019-01-06T08:58:33.425Z,5.17
2019-01-06T09:01:40.328Z,4.00
2019-01-06T09:04:31.263Z,6.00
2019-01-06T09:07:19.032Z,4.60
2019-01-06T09:10:06.060Z,11.90
2019-01-06T09:13:00.397Z,9.73
2019-01-06T09:15:47.454Z,8.83
2019-01-06T09:18:39.299Z,8.60
2019-01-06T09:21:24.301Z,5.50
2019-01-06T09:24:06.118Z,6.17
2019-01-06T09:26:57.460Z,7.80
2019-01-06T09:29:46.382Z,6.33
2019-01-06T09:32:49.715Z,4.20
2019-01-06T09:35:36.785Z,8.33
2019-01-06T09:38:43.196Z,7.13
2019-01-06T09:41:30.287Z,6.70
2019-01-06T09:44:37.022Z,5.57
2019-01-06T09:47:27.524Z,7.53
2019-01-06T09:50:28.421Z,7.20
2019-01-06T09:53:19.601Z,5.93
2019-01-06T09:56:10.923Z,5.53
2019-01-06T09:58:58.627Z,6.10
2019-01-06T10:01:46.787Z,4.33
2019-01-06T10:04:35.112Z,5.37
2019-01-06T10:07:23.585Z,4.90
2019-01-06T10:10:10.997Z,5.83
2019-01-06T10:12:58.150Z,6.00
2019-01-06T10:15:49.419Z,3.00
2019-01-06T10:18:36.888Z,4.03
2019-01-06T10:21:28.191Z,6.00
2019-01-06T10:24:22.469Z,6.30
2019-01-06T10:27:10.920Z,6.33
2019-01-06T10:30:17.168Z,4.10
2019-01-06T10:33:08.363Z,5.27
2019-01-06T10:35:55.548Z,6.03
2019-01-06T10:38:50.111Z,4.67
2019-01-06T10:41:50.975Z,4.60
2019-01-06T10:44:48.464Z,5.33
2019-01-06T10:47:35.305Z,5.20
2019-01-06T10:50:22.579Z,5.57
2019-01-06T10:53:22.796Z,5.43
2019-01-06T10:56:26.207Z,4.30
2019-01-06T10:59:32.754Z,5.90
2019-01-06T11:02:23.634Z,4.90
2019-01-06T11:05:10.373Z,4.67
2019-01-06T11:08:13.766Z,5.90
2019-01-06T11:11:00.786Z,7.70
2019-01-06T11:14:07.659Z,7.57
2019-01-06T11:16:55.998Z,5.62
2019-01-06T11:19:47.886Z,6.43
2019-01-06T11:22:36.107Z,3.93
2019-01-06T11:25:32.414Z,4.57
2019-01-06T11:28:19.634Z,4.27
2019-01-06T11:31:06.659Z,4.25
2019-01-06T11:33:53.873Z,5.30
2019-01-06T11:36:41.995Z,4.40
2019-01-06T11:39:29.491Z,4.60
2019-01-06T11:42:21.396Z,4.35
2019-01-06T11:45:05.889Z,4.77
2019-01-06T11:47:53.098Z,4.50
2019-01-06T11:50:47.568Z,4.03
2019-01-06T11:53:26.414Z,4.40
2019-01-06T11:56:17.473Z,4.50
2019-01-06T11:59:04.539Z,4.30
2019-01-06T12:01:58.705Z,4.10
2019-01-06T12:04:42.262Z,5.40
2019-01-06T12:07:33.638Z,4.50
2019-01-06T12:10:40.850Z,4.23
2019-01-06T12:13:40.880Z,4.80
2019-01-06T12:16:35.132Z,4.43
2019-01-06T12:19:38.363Z,4.27
2019-01-06T12:22:25.846Z,4.37
2019-01-06T12:25:11.028Z,3.80
2019-01-06T12:28:14.566Z,4.40
2019-01-06T12:31:01.386Z,4.97
2019-01-06T12:33:48.620Z,11.30
2019-01-06T12:36:36.871Z,4.23
2019-01-06T12:39:24.690Z,3.50
2019-01-06T12:42:31.600Z,4.00
2019-01-06T12:45:25.201Z,4.03
2019-01-06T12:48:13.350Z,3.63
2019-01-06T12:51:04.726Z,2.90
2019-01-06T12:53:52.214Z,4.00
2019-01-06T12:56:39.373Z,3.63
2019-01-06T12:59:39.538Z,3.30
2019-01-06T13:02:37.613Z,2.20
2019-01-06T13:05:38.000Z,3.43
2019-01-06T13:08:24.211Z,3.90
2019-01-06T13:11:11.498Z,2.70
2019-01-06T13:13:58.533Z,3.40
2019-01-06T13:16:58.742Z,2.63
2019-01-06T13:19:53.510Z,3.67
2019-01-06T13:22:42.030Z,3.00
2019-01-06T13:25:33.188Z,4.20
2019-01-06T13:28:30.139Z,4.37
2019-01-06T13:31:18.245Z,4.83
2019-01-06T13:34:06.338Z,7.13
2019-01-06T13:36:53.512Z,6.07
2019-01-06T13:39:44.536Z,5.90
2019-01-06T13:42:32.257Z,6.93
2019-01-06T13:45:35.270Z,5.67
2019-01-06T13:48:29.762Z,6.43
2019-01-06T13:51:36.187Z,7.70
2019-01-06T13:54:29.955Z,5.23
2019-01-06T13:57:12.314Z,5.20
2019-01-06T14:00:06.825Z,6.63
2019-01-06T14:02:51.534Z,6.90
2019-01-06T14:05:38.186Z,5.23
2019-01-06T14:08:24.958Z,5.50
2019-01-06T14:11:12.216Z,5.30
2019-01-06T14:14:03.452Z,7.17
2019-01-06T14:17:09.856Z,5.70
2019-01-06T14:20:04.353Z,6.57
2019-01-06T14:22:51.001Z,5.30
2019-01-06T14:25:32.393Z,6.70
2019-01-06T14:28:26.454Z,4.83
2019-01-06T14:31:15.166Z,5.45
2019-01-06T14:34:16.616Z,6.83
2019-01-06T14:37:06.651Z,7.10
2019-01-06T14:39:44.474Z,6.80
2019-01-06T14:42:25.114Z,7.13
2019-01-06T14:45:12.173Z,6.50
2019-01-06T14:48:00.729Z,6.60
2019-01-06T14:50:47.687Z,7.37
2019-01-06T14:53:45.982Z,6.30
2019-01-06T14:56:32.870Z,6.33
2019-01-06T14:59:20.196Z,7.60
2019-01-06T15:02:07.013Z,5.80
2019-01-06T15:04:58.200Z,6.37
2019-01-06T15:07:55.121Z,6.13
2019-01-06T15:10:55.623Z,5.93
2019-01-06T15:13:43.386Z,6.40
2019-01-06T15:16:30.514Z,6.60
2019-01-06T15:19:17.617Z,7.00
2019-01-06T15:22:05.116Z,5.83
2019-01-06T15:24:56.287Z,6.57
2019-01-06T15:27:59.607Z,4.97
2019-01-06T15:30:53.885Z,6.50
2019-01-06T15:33:40.749Z,6.17
2019-01-06T15:36:35.338Z,6.07
2019-01-06T15:39:27.527Z,8.90
2019-01-06T15:42:18.512Z,7.00
2019-01-06T15:45:05.841Z,19.00
2019-01-06T15:47:54.321Z,8.80
2019-01-06T15:50:41.987Z,11.07
2019-01-06T15:53:25.635Z,10.33
2019-01-06T15:56:13.229Z,7.35
2019-01-06T15:59:16.729Z,8.33
2019-01-06T16:02:05.397Z,8.65
2019-01-06T16:05:05.916Z,7.00
2019-01-06T16:07:54.679Z,7.70
2019-01-06T16:10:52.198Z,14.87
2019-01-06T16:13:52.437Z,8.80
2019-01-06T16:16:40.523Z,8.05
2019-01-06T16:19:28.951Z,7.50
2019-01-06T16:22:35.563Z,7.87
2019-01-06T16:25:42.548Z,7.87
2019-01-06T16:28:29.423Z,7.87
2019-01-06T16:31:17.597Z,6.80
2019-01-06T16:34:05.158Z,6.73
2019-01-06T16:36:52.216Z,5.60
2019-01-06T16:39:39.658Z,6.80
2019-01-06T16:42:27.768Z,5.43
2019-01-06T16:45:24.881Z,8.03
2019-01-06T16:48:31.974Z,6.10
2019-01-06T16:51:18.773Z,6.40
2019-01-06T16:54:15.771Z,7.87
2019-01-06T16:57:02.751Z,7.83
2019-01-06T16:59:57.808Z,6.90
2019-01-06T17:03:04.718Z,10.90
2019-01-06T17:05:52.373Z,8.87
2019-01-06T17:08:38.367Z,7.30
2019-01-06T17:11:35.716Z,14.63
2019-01-06T17:14:22.602Z,10.33
2019-01-06T17:17:10.004Z,9.23
2019-01-06T17:20:07.430Z,8.07
2019-01-06T17:22:58.707Z,11.13
2019-01-06T17:25:53.022Z,8.77
2019-01-06T17:28:41.569Z,8.60
2019-01-06T17:31:32.679Z,9.93
2019-01-06T17:34:19.898Z,10.73
2019-01-06T17:37:14.005Z,11.30
2019-01-06T17:40:09.196Z,9.07
2019-01-06T17:42:57.445Z,7.50
2019-01-06T17:45:44.655Z,11.20
2019-01-06T17:48:48.716Z,6.30
2019-01-06T17:51:35.699Z,8.13
2019-01-06T17:54:36.950Z,6.47
2019-01-06T17:57:21.117Z,10.53
2019-01-06T18:00:12.962Z,9.80
2019-01-06T18:03:00.080Z,7.93
2019-01-06T18:05:42.926Z,6.13
2019-01-06T18:08:43.257Z,8.90
2019-01-06T18:11:30.815Z,8.00
2019-01-06T18:14:24.583Z,6.03
2019-01-06T18:17:12.796Z,7.33
2019-01-06T18:20:10.061Z,6.93
2019-01-06T18:22:57.409Z,6.50
2019-01-06T18:25:44.322Z,6.40
2019-01-06T18:28:31.531Z,6.40
2019-01-06T18:31:18.778Z,6.50
2019-01-06T18:34:13.060Z,5.83
2019-01-06T18:37:19.753Z,7.33
2019-01-06T18:40:14.182Z,6.23
2019-01-06T18:43:18.257Z,5.63
2019-01-06T18:46:05.125Z,7.40
2019-01-06T18:48:48.549Z,8.20
2019-01-06T18:51:54.023Z,8.88
2019-01-06T18:54:45.596Z,7.63
2019-01-06T18:57:37.202Z,8.10
2019-01-06T19:00:35.580Z,6.23
2019-01-06T19:03:22.997Z,7.03
2019-01-06T19:06:11.223Z,7.80
2019-01-06T19:08:59.131Z,6.43
2019-01-06T19:11:46.158Z,6.13
2019-01-06T19:14:34.855Z,5.90
2019-01-06T19:17:40.725Z,7.43
2019-01-06T19:20:28.967Z,8.00
2019-01-06T19:23:23.262Z,8.03
2019-01-06T19:26:10.621Z,7.60
2019-01-06T19:29:03.011Z,8.90
2019-01-06T19:31:55.291Z,8.07
2019-01-06T19:34:52.846Z,8.10
2019-01-06T19:37:44.700Z,7.13
2019-01-06T19:40:49.246Z,8.17
2019-01-06T19:43:39.232Z,8.40
2019-01-06T19:46:30.408Z,9.00
2019-01-06T19:49:18.689Z,8.40
2019-01-06T19:52:26.392Z,9.70
2019-01-06T19:55:24.877Z,10.20
2019-01-06T19:58:20.194Z,10.83
2019-01-06T20:01:09.646Z,9.30
2019-01-06T20:04:01.601Z,9.93
2019-01-06T20:06:52.404Z,11.43
2019-01-06T20:09:54.889Z,10.90
2019-01-06T20:12:53.881Z,8.70
2019-01-06T20:15:52.163Z,10.20
2019-01-06T20:18:35.682Z,9.70
2019-01-06T20:21:35.662Z,10.67
2019-01-06T20:24:23.654Z,9.87
2019-01-06T20:27:22.247Z,11.33
2019-01-06T20:30:12.129Z,9.90
2019-01-06T20:33:04.414Z,11.03
2019-01-06T20:35:52.105Z,12.20
2019-01-06T20:38:46.670Z,10.60
2019-01-06T20:41:33.618Z,11.40
2019-01-06T20:44:20.883Z,10.60
2019-01-06T20:47:11.858Z,11.63
2019-01-06T20:50:03.882Z,11.77
2019-01-06T20:53:10.432Z,12.83
2019-01-06T20:56:07.927Z,11.55
2019-01-06T20:59:14.529Z,12.83
2019-01-06T21:02:14.878Z,12.82
2019-01-06T21:05:03.327Z,11.33
2019-01-06T21:07:50.599Z,13.00
2019-01-06T21:10:41.810Z,11.07
2019-01-06T21:13:28.542Z,14.30
2019-01-06T21:16:23.402Z,12.27
2019-01-06T21:19:11.196Z,12.77
2019-01-06T21:22:05.106Z,12.53
2019-01-06T21:24:52.246Z,12.23
2019-01-06T21:27:40.381Z,11.60
2019-01-06T21:30:40.865Z,11.97
2019-01-06T21:33:47.463Z,12.67
2019-01-06T21:36:34.894Z,12.53
2019-01-06T21:39:38.682Z,13.67
2019-01-06T21:42:39.215Z,12.57
2019-01-06T21:45:36.912Z,13.70
2019-01-06T21:48:27.969Z,13.10
2019-01-06T21:51:16.085Z,13.10
2019-01-06T21:54:04.174Z,13.47
2019-01-06T21:56:51.356Z,13.07
2019-01-06T21:59:38.763Z,15.20
2019-01-06T22:02:26.257Z,12.37
2019-01-06T22:05:13.721Z,13.63
2019-01-06T22:07:56.942Z,14.17
2019-01-06T22:10:57.080Z,15.03
2019-01-06T22:13:48.404Z,13.47
2019-01-06T22:16:35.334Z,14.70
2019-01-06T22:19:35.640Z,14.13
2019-01-06T22:22:29.890Z,14.17
2019-01-06T22:25:16.458Z,15.07
2019-01-06T22:28:07.404Z,14.07
2019-01-06T22:30:54.652Z,13.60
2019-01-06T22:34:00.983Z,14.60
2019-01-06T22:37:04.034Z,13.83
2019-01-06T22:40:10.430Z,14.73
2019-01-06T22:42:57.380Z,14.73
2019-01-06T22:45:57.419Z,14.10
2019-01-06T22:48:49.676Z,15.33
2019-01-06T22:51:41.298Z,15.20
2019-01-06T22:54:28.414Z,13.73
2019-01-06T22:57:11.894Z,16.83
2019-01-06T22:59:59.110Z,16.67
2019-01-06T23:02:56.352Z,16.60
2019-01-06T23:05:47.701Z,17.70
2019-01-06T23:08:34.543Z,17.60
2019-01-06T23:11:28.847Z,16.00
2019-01-06T23:14:12.275Z,17.67
2019-01-06T23:16:59.481Z,18.40
2019-01-06T23:19:57.064Z,16.40
2019-01-06T23:22:44.630Z,16.90
2019-01-06T23:25:31.343Z,18.00
2019-01-06T23:28:25.883Z,15.80
2019-01-06T23:31:29.415Z,16.50
2019-01-06T23:34:23.492Z,18.67
2019-01-06T23:37:10.752Z,18.80
2019-01-06T23:40:14.820Z,16.80
2019-01-06T23:43:02.152Z,16.27
2019-01-06T23:45:48.998Z,14.90
2019-01-06T23:48:38.103Z,15.70
2019-01-06T23:51:32.589Z,14.93
2019-01-06T23:54:23.634Z,16.70
2019-01-06T23:57:09.903Z,17.30
